ADDS METAR Data INFO
IDs: Format: Raw Decoded Include TAF

Data at: 1900 UTC 22 Sep 2017

METAR for:PASD (Sand Point Arpt, AK, US)
Text:PASD 221856Z 18007KT 4SM -RA BR SCT007 BKN016 OVC024 10/10 A2957 RMK AO2 DZE53RAB53 SLP016 VIS LWR SE-S KH P0002 T01000100
Temperature: 10.0°C ( 50°F)
Dewpoint: 10.0°C ( 50°F) [RH = 100%]
Pressure (altimeter):29.57 inches Hg (1001.4 mb) [Sea level pressure: 1001.6 mb]
Winds:from the S (180 degrees) at 8 MPH (7 knots; 3.6 m/s)
Visibility: 4 sm ( 6 km)
Ceiling:1600 feet AGL
Clouds: scattered clouds at 700 feet AGL, broken clouds at 1600 feet AGL, overcast cloud deck at 2400 feet AGL
Weather:-RA BR (light rain, mist)
Text:PASD 221756Z 18006KT 6SM -DZ BR SCT007 BKN014 OVC021 10/10 A2958 RMK AO2 SLP019 VIS LWR SE-S KH P0000 60000 T01000100 10106 20100 55002
Temperature: 10.0°C ( 50°F)
Dewpoint: 10.0°C ( 50°F) [RH = 100%]
Pressure (altimeter):29.58 inches Hg (1001.8 mb) [Sea level pressure: 1001.9 mb]
Winds:from the S (180 degrees) at 7 MPH (6 knots; 3.1 m/s)
Visibility: 6 sm ( 10 km)
Ceiling:1400 feet AGL
Clouds: scattered clouds at 700 feet AGL, broken clouds at 1400 feet AGL, overcast cloud deck at 2100 feet AGL
Weather:-DZ BR (light drizzle, mist)
Text:PASD 221656Z 19008KT 8SM -DZ SCT008 BKN014 OVC022 10/09 A2958 RMK KH
Temperature: 10.0°C ( 50°F)
Dewpoint: 9.0°C ( 48°F) [RH = 93%]
Pressure (altimeter):29.58 inches Hg (1001.8 mb)
Winds:from the S (190 degrees) at 9 MPH (8 knots; 4.1 m/s)
Visibility: 8 sm ( 13 km)
Ceiling:1400 feet AGL
Clouds: scattered clouds at 800 feet AGL, broken clouds at 1400 feet AGL, overcast cloud deck at 2200 feet AGL
Weather:-DZ (light drizzle)
Text:PASD 221556Z 20009KT 8SM -DZ BKN014 BKN020 OVC027 11/09 A2958 RMK AO2 RAE03DZB08 SLP020 P0000 T01060094
Temperature: 10.6°C ( 51°F)
Dewpoint: 9.4°C ( 49°F) [RH = 92%]
Pressure (altimeter):29.58 inches Hg (1001.8 mb) [Sea level pressure: 1002.0 mb]
Winds:from the SSW (200 degrees) at 10 MPH (9 knots; 4.6 m/s)
Visibility: 8 sm ( 13 km)
Ceiling:1400 feet AGL
Clouds: broken clouds at 1400 feet AGL, broken clouds at 2000 feet AGL, overcast cloud deck at 2700 feet AGL
Weather:-DZ (light drizzle)
Text:PASD 221529Z 20009KT 7SM -DZ BKN014 BKN020 OVC050 11/09 A2958 RMK AO2 RAE03DZB08 P0000
Temperature: 11.0°C ( 52°F)
Dewpoint: 9.0°C ( 48°F) [RH = 87%]
Pressure (altimeter):29.58 inches Hg (1001.8 mb)
Winds:from the SSW (200 degrees) at 10 MPH (9 knots; 4.6 m/s)
Visibility: 7 sm ( 11 km)
Ceiling:1400 feet AGL
Clouds: broken clouds at 1400 feet AGL, broken clouds at 2000 feet AGL, overcast cloud deck at 5000 feet AGL
Weather:-DZ (light drizzle)
Text:PASD 221456Z 20009KT 3SM -RA BR BKN011 OVC014 11/09 A2959 RMK AO2 SLP021 P0000 60000 T01060094 56006
Temperature: 10.6°C ( 51°F)
Dewpoint: 9.4°C ( 49°F) [RH = 92%]
Pressure (altimeter):29.59 inches Hg (1002.1 mb) [Sea level pressure: 1002.1 mb]
Winds:from the SSW (200 degrees) at 10 MPH (9 knots; 4.6 m/s)
Visibility: 3 sm ( 5 km)
Ceiling:1100 feet AGL
Clouds: broken clouds at 1100 feet AGL, overcast cloud deck at 1400 feet AGL
Weather:-RA BR (light rain, mist)
Text:PASD 221414Z AUTO 20009KT 7SM -RA BKN014 OVC020 11/10 A2959 RMK AO2 P0000
Temperature: 11.0°C ( 52°F)
Dewpoint: 10.0°C ( 50°F) [RH = 94%]
Pressure (altimeter):29.59 inches Hg (1002.1 mb)
Winds:from the SSW (200 degrees) at 10 MPH (9 knots; 4.6 m/s)
Visibility: 7 sm ( 11 km)
Ceiling:1400 feet AGL
Clouds: broken clouds at 1400 feet AGL, overcast cloud deck at 2000 feet AGL
Weather:-RA (light rain)
QC Flag:automated observation with no human augmentation

TAF for:PASD (Sand Point Arpt, AK, US) issued at 1740 UTC 22 Sep 2017
Text:PASD 221740Z 2218/2318 20008KT P6SM -SHRA SCT008 BKN015 OVC025
Forecast period:1800 UTC 22 September 2017 to 0100 UTC 23 September 2017
Forecast type:FROM: standard forecast or significant change
Winds:from the SSW (200 degrees) at 9 MPH (8 knots; 4.1 m/s)
Visibility:6 or more sm (10+ km)
Ceiling:1500 feet AGL
Clouds: scattered clouds at 800 feet AGL, broken clouds at 1500 feet AGL, overcast cloud deck at 2500 feet AGL
Weather:-SHRA (light rain showers)
Text:FM230100 34010KT 5SM -RA BR BKN008 OVC015
Forecast period:0100 to 0700 UTC 23 September 2017
Forecast type:FROM: standard forecast or significant change
Winds:from the NNW (340 degrees) at 12 MPH (10 knots; 5.1 m/s)
Visibility: 5 sm ( 8 km)
Ceiling:800 feet AGL
Clouds: broken clouds at 800 feet AGL, overcast cloud deck at 1500 feet AGL
Weather:-RA BR (light rain, mist)
Text:FM230700 33012KT 6SM -RA SCT008 OVC015
Forecast period:0700 to 1200 UTC 23 September 2017
Forecast type:FROM: standard forecast or significant change
Winds:from the NNW (330 degrees) at 14 MPH (12 knots; 6.2 m/s)
Visibility: 6 sm ( 10 km)
Ceiling:1500 feet AGL
Clouds: scattered clouds at 800 feet AGL, overcast cloud deck at 1500 feet AGL
Weather:-RA (light rain)
Text:FM231200 33012G22KT P6SM VCSH SCT025 BKN050 AMD LTD TO CLD VIS AND WIND
Forecast period:1200 to 1800 UTC 23 September 2017
Forecast type:FROM: standard forecast or significant change
Winds:from the NNW (330 degrees) at 14 MPH (12 knots; 6.2 m/s) gusting to 25 MPH (22 knots; 11.3 m/s)
Visibility:6 or more sm (10+ km)
Ceiling:5000 feet AGL
Clouds: scattered clouds at 2500 feet AGL, broken clouds at 5000 feet AGL
Weather:VCSH (showers in vicinity)